Time;durP1;ratioP1;P1;durP2;ratioP2;P2;SDS_P1;SDS_P2;PMS_P1;PMS_P2;Temp;Humidity;BMP_temperature;BMP_pressure;BME280_temperature;BME280_humidity;BME280_pressure;Samples;Min_cycle;Max_cycle;Signal;HPM_P1;HPM_P2
2023/12/16 00:33:29;;;;;;;;;;;;;;;8.57;100.00;102288.63;1543815;22;21326;-89
2023/12/16 00:47:10;;;;;;;;;;;;;;;8.59;100.00;102289.41;5420592;22;19929;-90
2023/12/16 00:49:35;;;;;;;;;;;;;;;8.61;100.00;102284.03;4981861;28;19917;-90
2023/12/16 00:52:03;;;;;;;;;;;;;;;8.62;100.00;102285.75;5002426;28;19948;-96
2023/12/16 00:54:44;;;;;;;;;;;;;;;8.61;100.00;102277.00;5022303;28;19932;-96
2023/12/16 01:11:25;;;;;;;;;;;;;;;8.33;100.00;102265.31;5883538;22;20003;-89
2023/12/16 01:13:51;;;;;;;;;;;;;;;8.30;100.00;102258.44;4991891;28;20724;-89
2023/12/16 01:16:24;;;;;;;;;;;;;;;8.31;100.00;102246.94;5005344;28;19988;-96
2023/12/16 01:19:15;;;;;;;;;;;;;;;8.35;100.00;102259.94;5027431;28;20011;-96
2023/12/16 01:21:55;;;;;;;;;;;;;;;8.34;100.00;102251.22;5019177;28;19928;-96
2023/12/16 01:24:36;;;;;;;;;;;;;;;;;;;;;
2023/12/16 01:27:11;;;;;;;;;;;;;;;8.33;100.00;102257.41;5031901;28;19927;-96
2023/12/16 01:29:41;;;;;;;;;;;;;;;8.35;100.00;102259.94;5027218;28;19904;-96
2023/12/16 01:32:07;;;;;;;;;;;;;;;8.33;100.00;102265.31;5007314;28;19920;-90
2023/12/16 01:34:33;;;;;;;;;;;;;;;8.32;100.00;102255.72;5026252;28;19924;-90
2023/12/16 01:36:59;;;;;;;;;;;;;;;8.26;100.00;102256.91;5016275;28;20015;-89
2023/12/16 01:39:24;;;;;;;;;;;;;;;8.19;100.00;102251.13;5012273;28;20516;-89
2023/12/16 01:41:50;;;;;;;;;;;;;;;8.17;100.00;102250.34;5033786;28;19917;-89
2023/12/16 01:44:16;;;;;;;;;;;;;;;8.18;100.00;102253.84;5020617;28;19939;-89
2023/12/16 01:46:42;;;;;;;;;;;;;;;8.19;100.00;102256.38;4998106;28;19923;-88
2023/12/16 01:49:08;;;;;;;;;;;;;;;8.20;100.00;102259.88;4996194;28;19920;-89
2023/12/16 01:51:54;;;;;;;;;;;;;;;8.20;100.00;102254.63;5007477;28;19959;-96
2023/12/16 01:54:28;;;;;;;;;;;;;;;8.25;100.00;102257.00;5045041;28;19964;-96
2023/12/16 01:57:03;;;;;;;;;;;;;;;8.30;100.00;102252.31;5056243;28;19925;-90
2023/12/16 01:59:29;;;;;;;;;;;;;;;8.35;100.00;102257.31;5004499;28;19959;-90
2023/12/16 02:01:54;;;;;;;;;;;;;;;8.39;100.00;102256.22;5010805;28;19917;-96
2023/12/16 02:04:21;;;;;;;;;;;;;;;8.47;100.00;102250.53;5043467;28;19925;-96
2023/12/16 02:06:53;;;;;;;;;;;;;;;8.53;100.00;102251.03;5030766;28;19909;-96
2023/12/16 02:09:27;;;;;;;;;;;;;;;8.59;100.00;102259.56;5059623;28;19921;-96
2023/12/16 02:11:58;;;;;;;;;;;;;;;8.63;100.00;102259.28;5020673;28;19929;-96
2023/12/16 02:14:26;;;;;;;;;;;;;;;8.67;100.00;102254.72;5015465;28;19980;-96
2023/12/16 02:16:58;;;;;;;;;;;;;;;8.70;100.00;102246.63;5033523;28;20020;-90
2023/12/16 02:19:25;;;;;;;;;;;;;;;8.74;100.00;102258.72;5027480;28;20000;-90
2023/12/16 02:21:52;;;;;;;;;;;;;;;8.76;100.00;102248.06;5041472;28;20020;-96
2023/12/16 02:24:28;;;;;;;;;;;;;;;8.79;100.00;102255.81;5034862;28;19988;-96
2023/12/16 02:27:00;;;;;;;;;;;;;;;8.83;100.00;102243.28;5018829;28;19945;-96
2023/12/16 02:29:33;;;;;;;;;;;;;;;8.85;100.00;102242.28;5019515;28;19917;-96
2023/12/16 02:32:04;;;;;;;;;;;;;;;8.88;100.00;102242.09;5018086;28;19940;-96
2023/12/16 02:34:35;;;;;;;;;;;;;;;8.90;100.00;102242.84;5050644;28;19953;-96
2023/12/16 02:37:06;;;;;;;;;;;;;;;8.90;100.00;102240.19;5009579;28;19923;-96
2023/12/16 02:39:39;;;;;;;;;;;;;;;8.90;100.00;102234.91;5018777;28;19935;-96
2023/12/16 02:42:05;;;;;;;;;;;;;;;8.91;100.00;102233.16;5037330;28;19988;-96
2023/12/16 02:44:34;;;;;;;;;;;;;;;8.92;100.00;102230.41;5032981;28;19939;-96
2023/12/16 02:47:09;;;;;;;;;;;;;;;8.92;100.00;102232.19;4982673;28;19925;-90
2023/12/16 02:49:35;;;;;;;;;;;;;;;8.92;100.00;102229.56;4989356;28;19947;-89
2023/12/16 02:52:01;;;;;;;;;;;;;;;8.91;100.00;102236.63;5005309;28;19917;-96
2023/12/16 02:54:31;;;;;;;;;;;;;;;8.92;100.00;102232.19;5020409;28;19918;-96
2023/12/16 02:57:08;;;;;;;;;;;;;;;8.90;100.00;102232.28;5038193;28;19901;-96
2023/12/16 02:59:38;;;;;;;;;;;;;;;8.89;100.00;102230.59;5024808;28;19923;-96
2023/12/16 03:02:04;;;;;;;;;;;;;;;8.90;100.00;102239.38;5011355;28;19925;-89
2023/12/16 03:04:30;;;;;;;;;;;;;;;8.92;100.00;102240.09;4991937;28;19941;-90
2023/12/16 03:06:56;;;;;;;;;;;;;;;8.95;100.00;102239.09;5010326;28;19921;-96
2023/12/16 03:09:21;;;;;;;;;;;;;;;8.98;100.00;102233.66;5014132;28;19924;-96
2023/12/16 03:11:49;;;;;;;;;;;;;;;8.99;100.00;102230.91;5016602;28;20419;-96
2023/12/16 03:14:18;;;;;;;;;;;;;;;9.01;100.00;102229.06;5023885;28;19983;-96
2023/12/16 03:16:51;;;;;;;;;;;;;;;9.05;100.00;102227.06;5013243;28;19917;-96
2023/12/16 03:19:19;;;;;;;;;;;;;;;9.05;100.00;102224.41;5017558;28;19961;-96
2023/12/16 03:21:46;;;;;;;;;;;;;;;9.08;100.00;102220.78;5014238;28;19917;-96
2023/12/16 03:24:12;;;;;;;;;;;;;;;9.04;100.00;102218.31;5012153;28;19972;-96
2023/12/16 03:26:41;;;;;;;;;;;;;;;9.00;100.00;102216.78;5014578;28;19921;-96
2023/12/16 03:29:07;;;;;;;;;;;;;;;8.95;100.00;102216.19;5015032;28;19921;-96
2023/12/16 03:31:33;;;;;;;;;;;;;;;8.87;100.00;102214.00;5013252;28;19917;-96
2023/12/16 03:33:59;;;;;;;;;;;;;;;8.81;100.00;102217.84;5008745;28;19971;-96
2023/12/16 03:36:27;;;;;;;;;;;;;;;8.75;100.00;102215.59;5028093;28;19939;-96
2023/12/16 03:38:54;;;;;;;;;;;;;;;8.71;100.00;102224.63;5010059;28;19917;-96
2023/12/16 03:41:20;;;;;;;;;;;;;;;8.66;100.00;102218.75;5009832;28;19964;-96
2023/12/16 03:43:46;;;;;;;;;;;;;;;8.61;100.00;102220.78;5007816;28;19998;-96
2023/12/16 03:46:12;;;;;;;;;;;;;;;8.59;100.00;102212.09;5007864;28;20019;-96
2023/12/16 03:48:38;;;;;;;;;;;;;;;8.53;100.00;102219.41;5018624;28;19956;-96
2023/12/16 03:51:04;;;;;;;;;;;;;;;8.46;100.00;102220.69;4997086;28;20443;-89
2023/12/16 03:53:30;;;;;;;;;;;;;;;8.35;100.00;102215.16;5007189;28;19924;-89
2023/12/16 03:55:55;;;;;;;;;;;;;;;8.28;100.00;102217.31;5015852;28;19943;-96
2023/12/16 03:58:21;;;;;;;;;;;;;;;8.21;100.00;102231.72;5023411;28;19917;-96
2023/12/16 04:00:47;;;;;;;;;;;;;;;8.17;100.00;102225.81;5037582;28;19913;-96
2023/12/16 04:03:15;;;;;;;;;;;;;;;8.18;100.00;102225.72;5032321;28;19952;-96
2023/12/16 04:05:42;;;;;;;;;;;;;;;8.19;100.00;102222.13;5000657;28;19918;-96
2023/12/16 04:08:13;;;;;;;;;;;;;;;8.26;100.00;102220.03;5017083;28;19922;-96
2023/12/16 04:10:42;;;;;;;;;;;;;;;8.32;100.00;102226.72;5030464;28;19952;-96
2023/12/16 04:13:11;;;;;;;;;;;;;;;8.38;100.00;102228.16;5006655;28;19921;-96
2023/12/16 04:15:37;;;;;;;;;;;;;;;8.41;100.00;102231.47;5025737;28;19922;-96
2023/12/16 04:18:15;;;;;;;;;;;;;;;8.44;100.00;102235.75;5022894;28;19921;-96
2023/12/16 04:20:41;;;;;;;;;;;;;;;8.44;100.00;102225.22;5012246;28;19917;-96
2023/12/16 04:23:09;;;;;;;;;;;;;;;8.46;100.00;102230.38;5023927;28;19925;-96
2023/12/16 04:25:40;;;;;;;;;;;;;;;8.49;100.00;102228.41;5014340;28;19936;-96
2023/12/16 04:28:10;;;;;;;;;;;;;;;8.53;100.00;102226.47;5034580;28;19928;-96
2023/12/16 04:30:42;;;;;;;;;;;;;;;8.57;100.00;102230.66;5032447;28;19917;-96
2023/12/16 04:33:08;;;;;;;;;;;;;;;8.61;100.00;102228.69;5017909;28;19917;-96
2023/12/16 04:35:37;;;;;;;;;;;;;;;8.64;100.00;102233.78;5009022;28;20361;-96
2023/12/16 04:38:03;;;;;;;;;;;;;;;8.65;100.00;102232.84;5030671;28;19910;-96
2023/12/16 04:40:32;;;;;;;;;;;;;;;8.65;100.00;102231.06;5022058;28;19918;-91
2023/12/16 04:43:02;;;;;;;;;;;;;;;8.68;100.00;102230.88;5012135;28;19925;-96
2023/12/16 04:45:31;;;;;;;;;;;;;;;8.71;100.00;102227.25;5032505;28;19917;-96
2023/12/16 04:47:56;;;;;;;;;;;;;;;8.75;100.00;102231.41;5018285;28;19924;-96
2023/12/16 04:50:22;;;;;;;;;;;;;;;8.77;100.00;102233.94;5036052;28;19932;-95
2023/12/16 04:52:49;;;;;;;;;;;;;;;8.81;100.00;102232.81;5010374;28;20000;-96
2023/12/16 04:55:16;;;;;;;;;;;;;;;8.81;100.00;102224.91;5014256;28;19944;-96
2023/12/16 04:57:46;;;;;;;;;;;;;;;8.81;100.00;102223.13;5016087;28;19917;-96
2023/12/16 05:00:18;;;;;;;;;;;;;;;8.84;100.00;102232.63;5037219;28;19924;-97
2023/12/16 05:02:44;;;;;;;;;;;;;;;8.85;100.00;102233.50;5024076;28;19917;-96
2023/12/16 05:05:15;;;;;;;;;;;;;;;8.87;100.00;102221.91;5035858;28;19944;-96
2023/12/16 05:07:42;;;;;;;;;;;;;;;8.92;100.00;102229.56;5019896;28;19905;-96
2023/12/16 05:10:10;;;;;;;;;;;;;;;8.93;100.00;102224.19;5039283;28;19921;-96
2023/12/16 05:12:39;;;;;;;;;;;;;;;8.96;100.00;102217.91;5011338;28;19918;-96
2023/12/16 05:15:12;;;;;;;;;;;;;;;8.99;100.00;102224.78;5020330;28;19932;-96
2023/12/16 05:17:41;;;;;;;;;;;;;;;9.01;100.00;102223.78;5023469;28;19901;-96
2023/12/16 05:20:15;;;;;;;;;;;;;;;9.03;100.00;102228.97;5021864;28;19940;-96
2023/12/16 05:22:43;;;;;;;;;;;;;;;9.05;100.00;102230.56;5039695;28;19925;-96
2023/12/16 05:25:10;;;;;;;;;;;;;;;9.06;100.00;102232.25;5024549;28;19956;-96
2023/12/16 05:27:42;;;;;;;;;;;;;;;9.10;100.00;102221.50;5053518;28;19921;-96
2023/12/16 05:30:09;;;;;;;;;;;;;;;9.09;100.00;102223.31;5035184;28;19933;-96
2023/12/16 05:32:39;;;;;;;;;;;;;;;9.12;100.00;102225.78;5023379;28;19939;-96
2023/12/16 05:35:12;;;;;;;;;;;;;;;9.14;100.00;102220.41;5036481;28;19947;-96
2023/12/16 05:37:41;;;;;;;;;;;;;;;9.14;100.00;102221.25;5119397;22;19925;-96
2023/12/16 05:40:08;;;;;;;;;;;;;;;9.14;100.00;102225.69;5005827;28;19966;-96
2023/12/16 05:42:34;;;;;;;;;;;;;;;9.13;100.00;102219.56;5036916;28;19921;-96
2023/12/16 05:45:00;;;;;;;;;;;;;;;9.14;100.00;102223.06;5009672;23;19972;-96
2023/12/16 05:47:25;;;;;;;;;;;;;;;9.14;100.00;102226.50;4992858;28;19960;-96
2023/12/16 05:49:51;;;;;;;;;;;;;;;9.12;100.00;102214.38;4976240;28;19929;-96
2023/12/16 05:52:17;;;;;;;;;;;;;;;9.11;100.00;102225.88;4983602;28;19922;-96
2023/12/16 05:54:45;;;;;;;;;;;;;;;9.13;100.00;102229.25;4994114;28;20344;-96
2023/12/16 05:57:11;;;;;;;;;;;;;;;9.13;100.00;102224.81;5012398;28;19918;-96
2023/12/16 05:59:36;;;;;;;;;;;;;;;9.14;100.00;102225.69;4974953;28;19925;-96
2023/12/16 06:02:02;;;;;;;;;;;;;;;9.12;100.00;102228.41;4959541;28;20318;-96
2023/12/16 06:04:29;;;;;;;;;;;;;;;9.12;100.00;102217.00;4972203;28;19972;-96
2023/12/16 06:06:55;;;;;;;;;;;;;;;9.13;100.00;102237.16;4970887;28;20077;-96
2023/12/16 06:09:20;;;;;;;;;;;;;;;9.14;100.00;102239.69;4962988;28;19989;-96
2023/12/16 06:11:46;;;;;;;;;;;;;;;9.18;100.00;102237.75;4978640;28;19925;-96
2023/12/16 06:14:12;;;;;;;;;;;;;;;9.18;100.00;102240.38;4982673;28;19925;-96
2023/12/16 06:16:37;;;;;;;;;;;;;;;9.20;100.00;102232.38;4990426;28;19960;-96
2023/12/16 06:19:06;;;;;;;;;;;;;;;9.17;100.00;102225.50;4978557;28;19924;-96
2023/12/16 06:21:32;;;;;;;;;;;;;;;9.17;100.00;102228.97;4994545;28;19925;-96
2023/12/16 06:24:00;;;;;;;;;;;;;;;9.18;100.00;102222.78;4994832;28;19922;-96
2023/12/16 06:26:26;;;;;;;;;;;;;;;9.20;100.00;102235.00;4958235;28;19929;-96
2023/12/16 06:28:52;;;;;;;;;;;;;;;9.21;100.00;102237.56;4969898;28;19969;-96
2023/12/16 06:31:18;;;;;;;;;;;;;;;9.23;100.00;102240.09;4977275;28;19922;-96
2023/12/16 06:33:44;;;;;;;;;;;;;;;9.21;100.00;102245.47;4953024;28;20057;-96
2023/12/16 06:36:10;;;;;;;;;;;;;;;9.21;100.00;102228.78;4990374;28;20359;-96
2023/12/16 06:38:35;;;;;;;;;;;;;;;9.17;100.00;102220.22;4958343;28;19926;-96
2023/12/16 06:41:02;;;;;;;;;;;;;;;9.12;100.00;102220.50;4974392;28;19965;-96
2023/12/16 06:43:27;;;;;;;;;;;;;;;9.05;100.00;102222.66;4975001;28;19918;-96
2023/12/16 06:45:54;;;;;;;;;;;;;;;9.00;100.00;102224.69;4988410;28;20263;-96
2023/12/16 06:48:20;;;;;;;;;;;;;;;8.98;100.00;102231.84;4961813;28;19926;-96
2023/12/16 06:50:46;;;;;;;;;;;;;;;8.95;100.00;102236.47;4990797;28;19968;-96
2023/12/16 06:53:12;;;;;;;;;;;;;;;8.92;100.00;102233.06;4974511;28;20290;-96
2023/12/16 06:55:37;;;;;;;;;;;;;;;8.85;100.00;102234.38;4969801;28;20354;-96
2023/12/16 06:58:04;;;;;;;;;;;;;;;8.81;100.00;102236.31;4974674;28;19988;-96
2023/12/16 07:00:32;;;;;;;;;;;;;;;8.76;100.00;102235.72;4967366;28;19922;-96
2023/12/16 07:03:01;;;;;;;;;;;;;;;8.71;100.00;102234.28;4973244;28;19921;-96
2023/12/16 07:05:32;;;;;;;;;;;;;;;8.66;100.00;102235.38;4974784;28;19929;-96
2023/12/16 07:07:58;;;;;;;;;;;;;;;8.66;100.00;102226.66;4978035;28;19922;-96
2023/12/16 07:10:27;;;;;;;;;;;;;;;8.61;100.00;102229.56;4956741;28;20069;-96
2023/12/16 07:12:53;;;;;;;;;;;;;;;8.57;100.00;102220.09;4972414;28;19918;-96
2023/12/16 07:15:19;;;;;;;;;;;;;;;8.55;100.00;102224.63;4972578;28;20333;-96
2023/12/16 07:17:45;;;;;;;;;;;;;;;8.53;100.00;102221.19;4977194;28;19926;-95
2023/12/16 07:20:11;;;;;;;;;;;;;;;8.52;100.00;102215.06;4976074;28;20036;-96
2023/12/16 07:22:36;;;;;;;;;;;;;;;8.49;100.00;102220.50;4953416;28;20370;-96
2023/12/16 07:25:02;;;;;;;;;;;;;;;8.47;100.00;102214.50;4971863;28;19929;-96
2023/12/16 07:27:28;;;;;;;;;;;;;;;8.43;100.00;102205.91;4965431;28;19956;-96
2023/12/16 07:29:57;;;;;;;;;;;;;;;8.41;100.00;102206.91;4952113;28;19918;-96
2023/12/16 07:32:25;;;;;;;;;;;;;;;8.38;100.00;102204.44;4972140;28;19918;-96
2023/12/16 07:34:51;;;;;;;;;;;;;;;8.35;100.00;102202.84;4957932;28;19926;-96
2023/12/16 07:37:20;;;;;;;;;;;;;;;8.34;100.00;102203.78;4988831;28;19922;-96
2023/12/16 07:39:46;;;;;;;;;;;;;;;8.34;100.00;102208.19;4958396;28;19925;-96
2023/12/16 07:42:13;;;;;;;;;;;;;;;8.32;100.00;102206.50;4960103;28;20334;-96
2023/12/16 07:44:38;;;;;;;;;;;;;;;8.36;100.00;102214.25;4960553;28;20016;-96
2023/12/16 07:47:10;;;;;;;;;;;;;;;8.41;100.00;102214.81;4970891;28;20004;-96
2023/12/16 07:49:36;;;;;;;;;;;;;;;8.46;100.00;102206.69;4965725;28;20437;-96
2023/12/16 07:52:01;;;;;;;;;;;;;;;8.49;100.00;102204.69;4991198;28;19922;-96
2023/12/16 07:54:33;;;;;;;;;;;;;;;8.52;100.00;102204.53;4993982;28;19925;-96
2023/12/16 07:56:59;;;;;;;;;;;;;;;8.56;100.00;102208.72;4966894;28;19926;-96
2023/12/16 07:59:25;;;;;;;;;;;;;;;8.62;100.00;102207.53;4974922;28;19951;-96
2023/12/16 08:01:53;;;;;;;;;;;;;;;8.66;100.00;102210.84;4978674;28;19960;-96
2023/12/16 08:04:18;;;;;;;;;;;;;;;8.72;100.00;102204.34;5009099;23;19926;-96
2023/12/16 08:06:44;;;;;;;;;;;;;;;8.75;100.00;102202.41;4971824;28;19925;-96
2023/12/16 08:09:10;;;;;;;;;;;;;;;8.79;100.00;102203.06;4983776;28;19968;-96
2023/12/16 08:11:36;;;;;;;;;;;;;;;8.82;100.00;102192.34;4973420;28;19918;-96
2023/12/16 08:14:06;;;;;;;;;;;;;;;8.84;100.00;102194.91;4983710;28;19918;-96
2023/12/16 08:16:32;;;;;;;;;;;;;;;8.86;100.00;102187.72;4998423;28;19987;-96
2023/12/16 08:18:58;;;;;;;;;;;;;;;8.86;100.00;102190.38;4983890;28;20296;-96
2023/12/16 08:21:23;;;;;;;;;;;;;;;8.88;100.00;102185.84;4992025;28;19918;-96
2023/12/16 08:23:49;;;;;;;;;;;;;;;8.88;100.00;102188.50;4970563;28;19922;-96
2023/12/16 08:26:15;;;;;;;;;;;;;;;8.87;100.00;102169.19;4982703;28;19928;-96
2023/12/16 08:28:41;;;;;;;;;;;;;;;8.86;100.00;102167.50;5002127;28;19928;-96
2023/12/16 08:31:09;;;;;;;;;;;;;;;8.87;100.00;102179.72;4980201;28;20025;-96
2023/12/16 08:33:35;;;;;;;;;;;;;;;8.87;100.00;102170.97;4986007;28;20140;-96
2023/12/16 08:36:01;;;;;;;;;;;;;;;8.85;100.00;102173.72;5000442;28;20405;-96
2023/12/16 08:38:28;;;;;;;;;;;;;;;8.83;100.00;102172.94;4966921;28;19968;-96
2023/12/16 08:40:57;;;;;;;;;;;;;;;8.82;100.00;102184.44;4982148;28;20441;-96
2023/12/16 08:43:34;;;;;;;;;;;;;;;8.80;100.00;102181.03;4984093;28;19919;-96
2023/12/16 08:46:07;;;;;;;;;;;;;;;8.77;100.00;102178.56;4971067;28;19921;-96
2023/12/16 08:48:40;;;;;;;;;;;;;;;8.73;100.00;102191.09;4990019;28;19929;-96
2023/12/16 08:51:32;;;;;;;;;;;;;;;8.74;100.00;102194.56;5002133;28;19960;-96
2023/12/16 08:53:58;;;;;;;;;;;;;;;8.72;100.00;102193.81;4978161;28;20384;-96
2023/12/16 08:56:40;;;;;;;;;;;;;;;8.72;100.00;102194.66;4969283;28;19961;-96
2023/12/16 08:59:13;;;;;;;;;;;;;;;8.76;100.00;102201.44;4985174;28;19918;-96
2023/12/16 09:01:44;;;;;;;;;;;;;;;8.76;100.00;102203.25;4962554;28;19924;-96
2023/12/16 09:04:21;;;;;;;;;;;;;;;;;;;;;
2023/12/16 09:06:50;;;;;;;;;;;;;;;8.76;100.00;102209.34;4996221;28;20382;-96
2023/12/16 09:09:18;;;;;;;;;;;;;;;8.77;100.00;102207.59;4997863;28;19922;-96
2023/12/16 09:11:48;;;;;;;;;;;;;;;8.76;100.00;102198.81;4999381;28;19918;-96
2023/12/16 09:17:13;;;;;;;;;;;;;;;8.76;100.00;102200.63;5031272;28;19925;-96
2023/12/16 09:19:40;;;;;;;;;;;;;;;8.80;100.00;102200.34;4995004;28;19972;-96
2023/12/16 09:22:11;;;;;;;;;;;;;;;8.80;100.00;102194.22;4998841;28;19929;-96
2023/12/16 09:24:37;;;;;;;;;;;;;;;8.78;100.00;102186.41;4972481;28;20392;-96
2023/12/16 09:27:24;;;;;;;;;;;;;;;8.76;100.00;102188.25;4986767;28;19918;-96
2023/12/16 09:29:51;;;;;;;;;;;;;;;8.78;100.00;102180.25;5002275;28;20559;-96
2023/12/16 09:32:28;;;;;;;;;;;;;;;8.85;100.00;102183.41;4997418;28;19909;-96
2023/12/16 09:34:54;;;;;;;;;;;;;;;8.89;100.00;102188.41;5008958;28;19961;-96
2023/12/16 09:37:21;;;;;;;;;;;;;;;8.89;100.00;102184.91;4989033;28;20110;-96
2023/12/16 09:40:13;;;;;;;;;;;;;;;8.96;100.00;102188.03;5009365;28;19926;-96
2023/12/16 09:42:42;;;;;;;;;;;;;;;8.96;100.00;102193.31;4994014;28;20011;-96
2023/12/16 09:45:20;;;;;;;;;;;;;;;8.99;100.00;102191.34;4995107;28;19965;-96
2023/12/16 09:48:26;;;;;;;;;;;;;;;8.99;100.00;102178.16;5021381;28;19922;-96
2023/12/16 09:50:52;;;;;;;;;;;;;;;8.99;100.00;102172.03;5006571;28;19956;-96
2023/12/16 09:53:25;;;;;;;;;;;;;;;9.02;100.00;102169.22;5021012;28;19918;-96
2023/12/16 09:55:54;;;;;;;;;;;;;;;9.06;100.00;102176.84;4993732;28;19922;-96
2023/12/16 09:58:37;;;;;;;;;;;;;;;9.11;100.00;102179.22;4988168;28;19948;-96
2023/12/16 10:01:05;;;;;;;;;;;;;;;9.15;100.00;102183.38;5012285;28;19917;-96
2023/12/16 10:03:31;;;;;;;;;;;;;;;9.22;100.00;102193.56;4983569;28;19925;-96
2023/12/16 10:05:57;;;;;;;;;;;;;;;9.28;100.00;102201.13;4990286;28;19922;-96
2023/12/16 10:08:23;;;;;;;;;;;;;;;9.33;100.00;102211.38;4995716;28;19940;-95
2023/12/16 10:10:56;;;;;;;;;;;;;;;9.37;100.00;102207.63;4965627;28;19917;-96
2023/12/16 10:13:21;;;;;;;;;;;;;;;9.41;100.00;102212.63;4984662;28;19917;-96
2023/12/16 10:15:50;;;;;;;;;;;;;;;9.45;100.00;102215.06;5018601;28;19926;-96
2023/12/16 10:18:17;;;;;;;;;;;;;;;9.49;100.00;102227.16;4990064;28;19917;-96
2023/12/16 10:20:43;;;;;;;;;;;;;;;9.53;100.00;102229.50;4989862;28;19922;-96
2023/12/16 10:23:12;;;;;;;;;;;;;;;9.58;100.00;102231.00;4988365;28;19925;-96
2023/12/16 10:25:42;;;;;;;;;;;;;;;9.58;100.00;102228.38;4983435;28;19958;-96
2023/12/16 10:28:12;;;;;;;;;;;;;;;9.56;100.00;102228.47;5003175;28;19928;-96
2023/12/16 10:30:56;;;;;;;;;;;;;;;9.53;100.00;102228.66;5012014;28;19930;-96
2023/12/16 10:33:27;;;;;;;;;;;;;;;9.55;100.00;102232.06;5028851;28;19925;-96
2023/12/16 10:36:23;;;;;;;;;;;;;;;9.62;100.00;102232.53;5007824;28;19979;-96
2023/12/16 10:38:49;;;;;;;;;;;;;;;9.67;100.00;102217.25;4982373;28;19925;-96
2023/12/16 10:41:23;;;;;;;;;;;;;;;9.72;100.00;102214.31;4990582;28;20353;-96
2023/12/16 10:44:20;;;;;;;;;;;;;;;9.79;100.00;102200.63;5009571;28;19917;-96
2023/12/16 10:46:46;;;;;;;;;;;;;;;9.83;100.00;102198.66;5010023;28;19997;-96
2023/12/16 10:49:17;;;;;;;;;;;;;;;9.89;100.00;102202.72;5010436;28;19918;-96
2023/12/16 10:51:44;;;;;;;;;;;;;;;9.94;100.00;102208.56;4982161;28;20285;-96
2023/12/16 10:54:23;;;;;;;;;;;;;;;10.00;100.00;102208.16;4984539;28;19926;-96
2023/12/16 10:56:56;;;;;;;;;;;;;;;10.05;100.00;102199.94;4985778;28;19917;-96
2023/12/16 10:59:27;;;;;;;;;;;;;;;10.14;100.00;102204.66;4982041;28;19925;-96
2023/12/16 11:01:57;;;;;;;;;;;;;;;10.24;100.00;102193.50;5001104;28;19921;-96
2023/12/16 11:04:28;;;;;;;;;;;;;;;10.29;100.00;102189.59;4974870;28;19926;-96
2023/12/16 11:07:10;;;;;;;;;;;;;;;10.33;100.00;102190.28;4962090;28;19922;-96
2023/12/16 11:09:40;;;;;;;;;;;;;;;10.44;100.00;102186.94;4958330;28;19922;-96
2023/12/16 11:12:07;;;;;;;;;;;;;;;10.50;100.00;102185.69;4962179;28;19918;-96
2023/12/16 11:14:35;;;;;;;;;;;;;;;10.58;100.00;102193.97;4948933;28;19922;-96
2023/12/16 11:17:03;;;;;;;;;;;;;;;10.64;100.00;102190.94;4971398;28;19918;-96
2023/12/16 11:19:30;;;;;;;;;;;;;;;10.71;100.00;102196.66;4959816;28;19918;-96
2023/12/16 11:21:55;;;;;;;;;;;;;;;10.73;100.00;102200.06;4952265;28;19918;-96
2023/12/16 11:24:21;;;;;;;;;;;;;;;10.77;100.00;102192.75;4977236;28;19918;-96
2023/12/16 11:26:51;;;;;;;;;;;;;;;10.80;100.00;102203.13;4959261;28;19946;-96
2023/12/16 11:29:24;;;;;;;;;;;;;;;10.81;100.00;102194.25;4970552;28;19922;-96
2023/12/16 11:31:58;;;;;;;;;;;;;;;10.86;100.00;102188.66;4961861;28;19926;-96
2023/12/16 11:34:59;;;;;;;;;;;;;;;10.86;100.00;102175.44;4956899;28;19903;-96
2023/12/16 11:37:46;;;;;;;;;;;;;;;10.89;100.00;102178.69;4947236;29;19926;-96
2023/12/16 11:40:47;;;;;;;;;;;;;;;10.92;100.00;102167.91;4966185;28;19918;-96
2023/12/16 11:43:13;;;;;;;;;;;;;;;11.00;100.00;102171.84;4956855;28;19918;-96
2023/12/16 11:45:40;;;;;;;;;;;;;;;11.04;100.00;102160.09;4961873;28;19918;-96
2023/12/16 11:48:06;;;;;;;;;;;;;;;11.11;100.00;102164.03;4965505;28;19922;-96
2023/12/16 11:50:34;;;;;;;;;;;;;;;11.12;100.00;102156.91;4960894;28;19917;-95
2023/12/16 11:53:00;;;;;;;;;;;;;;;11.08;100.00;102148.38;4957520;28;19977;-95
2023/12/16 11:55:26;;;;;;;;;;;;;;;11.07;100.00;102149.28;4982987;28;19957;-96
2023/12/16 11:57:55;;;;;;;;;;;;;;;11.08;100.00;102145.72;4977516;28;19918;-96
2023/12/16 12:00:22;;;;;;;;;;;;;;;11.04;100.00;102131.84;4968805;28;19922;-96
2023/12/16 12:02:50;;;;;;;;;;;;;;;11.09;100.00;102117.44;4968585;28;20359;-96
2023/12/16 12:05:15;;;;;;;;;;;;;;;11.12;100.00;102119.88;4972381;28;19960;-96
2023/12/16 12:07:41;;;;;;;;;;;;;;;11.12;100.00;102114.56;4978434;28;19918;-96
2023/12/16 12:10:08;;;;;;;;;;;;;;;11.13;100.00;102095.13;4990421;28;19933;-96
2023/12/16 12:12:38;;;;;;;;;;;;;;;11.16;100.00;102100.19;4988029;28;19933;-96
2023/12/16 12:15:15;;;;;;;;;;;;;;;11.14;100.00;102107.38;5017287;28;19961;-96
2023/12/16 12:17:41;;;;;;;;;;;;;;;11.05;100.00;102082.44;4989257;28;19918;-95
2023/12/16 12:20:07;;;;;;;;;;;;;;;11.03;100.00;102103.69;4989897;28;19986;-95
2023/12/16 12:22:33;;;;;;;;;;;;;;;11.02;100.00;102095.88;4986472;28;19974;-96
2023/12/16 12:25:00;;;;;;;;;;;;;;;10.99;100.00;102099.56;4981966;28;19926;-96
2023/12/16 12:27:31;;;;;;;;;;;;;;;10.96;100.00;102099.78;4976683;28;19917;-96
2023/12/16 12:30:01;;;;;;;;;;;;;;;10.98;100.00;102100.53;4990345;28;20367;-95
2023/12/16 12:32:29;;;;;;;;;;;;;;;10.91;100.00;102100.09;4965144;28;19925;-95
2023/12/16 12:34:57;;;;;;;;;;;;;;;10.87;100.00;102097.75;4987535;28;19925;-95
2023/12/16 12:37:27;;;;;;;;;;;;;;;10.86;100.00;102106.66;4968858;28;19925;-96
2023/12/16 12:39:52;;;;;;;;;;;;;;;10.82;100.00;102106.00;4969645;28;19928;-96
2023/12/16 12:42:18;;;;;;;;;;;;;;;10.80;100.00;102097.31;4979829;28;19917;-96
2023/12/16 12:44:53;;;;;;;;;;;;;;;10.77;100.00;102094.88;4985769;28;19988;-96
2023/12/16 12:47:26;;;;;;;;;;;;;;;10.75;100.00;102100.28;4976368;28;20012;-96
2023/12/16 12:49:52;;;;;;;;;;;;;;;10.71;100.00;102097.94;4980194;28;19961;-96
2023/12/16 12:52:18;;;;;;;;;;;;;;;10.71;100.00;102082.09;4989986;28;19968;-96
2023/12/16 12:54:44;;;;;;;;;;;;;;;10.66;100.00;102074.47;4963650;28;19933;-96
2023/12/16 12:57:16;;;;;;;;;;;;;;;10.67;100.00;102079.66;4992967;28;20005;-96
2023/12/16 12:59:42;;;;;;;;;;;;;;;10.62;100.00;102080.94;4972275;28;19918;-96
2023/12/16 13:02:08;;;;;;;;;;;;;;;10.64;100.00;102087.78;4984615;28;19949;-96
2023/12/16 13:04:37;;;;;;;;;;;;;;;10.68;100.00;102083.16;4978359;28;19926;-96
2023/12/16 13:07:03;;;;;;;;;;;;;;;10.79;100.00;102096.50;4977594;28;20418;-96
2023/12/16 13:09:29;;;;;;;;;;;;;;;10.83;100.00;102094.47;5004474;28;19924;-96
2023/12/16 13:11:55;;;;;;;;;;;;;;;10.90;100.00;102089.59;4969859;28;19980;-96
2023/12/16 13:14:21;;;;;;;;;;;;;;;10.97;100.00;102088.25;4958443;28;19952;-96
2023/12/16 13:16:48;;;;;;;;;;;;;;;11.11;100.00;102086.44;4965023;28;20367;-96
2023/12/16 13:19:16;;;;;;;;;;;;;;;11.22;100.00;102086.53;4974347;28;20406;-96
2023/12/16 13:21:42;;;;;;;;;;;;;;;11.33;100.00;102085.78;4956684;28;20386;-96
2023/12/16 13:24:07;;;;;;;;;;;;;;;11.52;100.00;102082.66;4971276;28;19956;-95
2023/12/16 13:26:33;;;;;;;;;;;;;;;11.68;100.00;102091.28;4973505;28;19917;-96
2023/12/16 13:28:59;;;;;;;;;;;;;;;11.82;100.00;102098.25;4975091;28;19965;-96
2023/12/16 13:31:24;;;;;;;;;;;;;;;11.93;100.00;102082.41;4950179;28;19929;-96
2023/12/16 13:33:50;;;;;;;;;;;;;;;11.99;100.00;102079.28;4980097;28;20500;-96
2023/12/16 13:36:16;;;;;;;;;;;;;;;12.02;100.00;102078.25;4973912;28;19918;-96
2023/12/16 13:38:42;;;;;;;;;;;;;;;11.98;100.00;102060.84;4948785;28;19922;-96
2023/12/16 13:41:08;;;;;;;;;;;;;;;11.96;100.00;102054.84;4970647;28;19918;-96
2023/12/16 13:43:33;;;;;;;;;;;;;;;11.89;100.00;102043.84;4953789;28;20513;-96
2023/12/16 13:45:59;;;;;;;;;;;;;;;11.84;100.00;102044.19;4972719;28;19922;-96